Time,TemperatureF,DewpointF,PressureIn,WindDirection,WindDirectionDegrees,WindSpeedMPH,WindSpeedGustMPH,Humidity,HourlyPrecipIn,Conditions,Clouds,dailyrainin,SoftwareType,DateUTC
2013-06-12 00:04:00,74.6,65.0,29.79,East,84,0.0,0.0,73,0.00,,,0.00,weatherlink.com 1.10,2013-06-12 05:04:00,
2013-06-12 00:19:00,74.1,65.0,29.80,East,84,0.0,1.0,74,0.00,,,0.00,weatherlink.com 1.10,2013-06-12 05:19:00,
2013-06-12 00:34:00,73.9,66.0,29.80,East,84,0.0,0.0,75,0.00,,,0.00,weatherlink.com 1.10,2013-06-12 05:34:00,
2013-06-12 00:49:00,73.3,66.0,29.80,East,84,0.0,1.0,77,0.00,,,0.00,weatherlink.com 1.10,2013-06-12 05:49:00,
2013-06-12 01:04:00,72.8,66.0,29.79,East,84,0.0,3.0,79,0.00,,,0.00,weatherlink.com 1.10,2013-06-12 06:04:00,
2013-06-12 01:19:00,72.7,66.0,29.79,East,84,0.0,2.0,78,0.00,,,0.00,weatherlink.com 1.10,2013-06-12 06:19:00,
2013-06-12 01:34:00,72.2,65.0,29.80,NW,319,0.0,6.0,77,0.00,,,0.00,weatherlink.com 1.10,2013-06-12 06:34:00,
2013-06-12 01:49:00,71.4,65.0,29.80,NE,42,1.0,3.0,80,0.00,,,0.00,weatherlink.com 1.10,2013-06-12 06:49:00,
2013-06-12 02:04:00,71.2,65.0,29.80,ENE,67,0.0,4.0,81,0.00,,,0.00,weatherlink.com 1.10,2013-06-12 07:04:00,
2013-06-12 02:19:00,70.8,65.0,29.79,ENE,69,0.0,4.0,82,0.00,,,0.00,weatherlink.com 1.10,2013-06-12 07:19:00,
2013-06-12 02:34:00,70.4,65.0,29.79,ENE,69,0.0,3.0,83,0.00,,,0.00,weatherlink.com 1.10,2013-06-12 07:34:00,
2013-06-12 02:49:00,70.0,65.0,29.79,ENE,69,0.0,3.0,84,0.00,,,0.00,weatherlink.com 1.10,2013-06-12 07:49:00,
2013-06-12 03:04:00,69.8,65.0,29.78,ENE,69,0.0,1.0,84,0.00,,,0.00,weatherlink.com 1.10,2013-06-12 08:04:00,
2013-06-12 03:19:00,69.9,65.0,29.76,ENE,70,1.0,3.0,84,0.00,,,0.00,weatherlink.com 1.10,2013-06-12 08:19:00,
2013-06-12 03:34:00,70.1,65.0,29.76,East,86,1.0,4.0,83,0.00,,,0.00,weatherlink.com 1.10,2013-06-12 08:34:00,
2013-06-12 03:49:00,69.9,65.0,29.74,ENE,77,0.0,6.0,83,0.00,,,0.00,weatherlink.com 1.10,2013-06-12 08:49:00,
2013-06-12 04:04:00,69.7,65.0,29.77,ENE,78,0.0,2.0,84,0.00,,,0.00,weatherlink.com 1.10,2013-06-12 09:04:00,
2013-06-12 04:19:00,69.5,65.0,29.83,ENE,78,0.0,1.0,85,0.00,,,0.00,weatherlink.com 1.10,2013-06-12 09:19:00,
2013-06-12 04:34:00,68.9,65.0,29.85,WNW,296,1.0,4.0,87,0.32,,,0.32,weatherlink.com 1.10,2013-06-12 09:34:00,
2013-06-12 04:50:00,68.3,65.0,29.82,ESE,103,0.0,6.0,89,0.38,,,0.38,weatherlink.com 1.10,2013-06-12 09:50:00,
2013-06-12 05:05:00,68.2,65.0,29.83,East,89,0.0,1.0,89,0.41,,,0.41,weatherlink.com 1.10,2013-06-12 10:05:00,
2013-06-12 05:20:00,68.0,65.0,29.81,East,85,4.0,5.0,90,0.43,,,0.43,weatherlink.com 1.10,2013-06-12 10:20:00,
2013-06-12 05:35:00,67.7,65.0,29.79,West,277,0.0,6.0,90,0.12,,,0.45,weatherlink.com 1.10,2013-06-12 10:35:00,
2013-06-12 05:50:00,67.4,65.0,29.75,West,269,3.0,10.0,90,0.07,,,0.46,weatherlink.com 1.10,2013-06-12 10:50:00,
2013-06-12 06:05:00,67.1,64.0,29.70,ENE,78,9.0,11.0,90,0.05,,,0.46,weatherlink.com 1.10,2013-06-12 11:05:00,
2013-06-12 06:20:00,67.0,64.0,29.71,East,82,0.0,10.0,90,0.03,,,0.46,weatherlink.com 1.10,2013-06-12 11:20:00,
2013-06-12 06:35:00,66.9,64.0,29.70,East,96,2.0,10.0,90,0.01,,,0.46,weatherlink.com 1.10,2013-06-12 11:35:00,
2013-06-12 06:50:00,66.8,64.0,29.70,ESE,102,2.0,10.0,90,0.00,,,0.46,weatherlink.com 1.10,2013-06-12 11:50:00,
2013-06-12 07:05:00,66.9,64.0,29.71,East,81,0.0,8.0,90,0.00,,,0.46,weatherlink.com 1.10,2013-06-12 12:05:00,
2013-06-12 07:20:00,67.1,64.0,29.73,NW,307,0.0,6.0,90,0.00,,,0.46,weatherlink.com 1.10,2013-06-12 12:20:00,
2013-06-12 07:35:00,67.4,65.0,29.71,East,99,1.0,6.0,90,0.00,,,0.46,weatherlink.com 1.10,2013-06-12 12:35:00,
2013-06-12 07:50:00,67.7,65.0,29.71,ESE,107,3.0,6.0,90,0.00,,,0.46,weatherlink.com 1.10,2013-06-12 12:50:00,
2013-06-12 08:05:00,67.7,65.0,29.71,SSE,168,1.0,7.0,90,0.00,,,0.46,weatherlink.com 1.10,2013-06-12 13:05:00,
2013-06-12 08:20:00,68.4,65.0,29.71,SW,223,0.0,5.0,90,0.00,,,0.46,weatherlink.com 1.10,2013-06-12 13:20:00,
2013-06-12 08:35:00,69.7,66.0,29.71,SSE,161,0.0,6.0,89,0.00,,,0.46,weatherlink.com 1.10,2013-06-12 13:35:00,
2013-06-12 08:50:00,71.3,67.0,29.72,South,173,5.0,9.0,87,0.00,,,0.46,weatherlink.com 1.10,2013-06-12 13:50:00,
2013-06-12 09:05:00,73.3,68.0,29.73,NE,45,0.0,7.0,84,0.00,,,0.46,weatherlink.com 1.10,2013-06-12 14:05:00,
2013-06-12 09:20:00,74.2,67.0,29.73,NE,49,0.0,3.0,79,0.00,,,0.46,weatherlink.com 1.10,2013-06-12 14:20:00,
2013-06-12 09:35:00,73.6,67.0,29.73,NE,55,0.0,3.0,81,0.00,,,0.46,weatherlink.com 1.10,2013-06-12 14:35:00,
2013-06-12 09:50:00,73.5,67.0,29.73,NE,56,0.0,4.0,81,0.00,,,0.46,weatherlink.com 1.10,2013-06-12 14:50:00,
2013-06-12 10:05:00,73.3,67.0,29.73,ENE,57,1.0,5.0,81,0.00,,,0.46,weatherlink.com 1.10,2013-06-12 15:05:00,
2013-06-12 10:20:00,73.3,68.0,29.73,ENE,59,0.0,4.0,82,0.00,,,0.46,weatherlink.com 1.10,2013-06-12 15:20:00,
2013-06-12 10:35:00,73.4,68.0,29.73,ENE,70,0.0,5.0,82,0.00,,,0.46,weatherlink.com 1.10,2013-06-12 15:35:00,
2013-06-12 10:50:00,74.2,68.0,29.72,ENE,72,0.0,4.0,81,0.00,,,0.46,weatherlink.com 1.10,2013-06-12 15:50:00,
2013-06-12 11:05:00,74.6,68.0,29.72,East,87,0.0,5.0,80,0.00,,,0.46,weatherlink.com 1.10,2013-06-12 16:05:00,
2013-06-12 11:20:00,74.2,68.0,29.72,East,81,0.0,4.0,81,0.00,,,0.46,weatherlink.com 1.10,2013-06-12 16:20:00,
2013-06-12 11:35:00,74.4,68.0,29.72,ENE,66,0.0,8.0,81,0.00,,,0.46,weatherlink.com 1.10,2013-06-12 16:35:00,
2013-06-12 11:50:00,75.6,69.0,29.71,South,180,0.0,6.0,79,0.00,,,0.46,weatherlink.com 1.10,2013-06-12 16:50:00,
2013-06-12 12:05:00,76.8,69.0,29.71,ENE,70,0.0,3.0,78,0.00,,,0.46,weatherlink.com 1.10,2013-06-12 17:05:00,
2013-06-12 12:20:00,76.9,69.0,29.71,East,88,2.0,6.0,76,0.00,,,0.46,weatherlink.com 1.10,2013-06-12 17:20:00,
2013-06-12 12:35:00,77.5,69.0,29.70,East,88,1.0,2.0,76,0.00,,,0.46,weatherlink.com 1.10,2013-06-12 17:35:00,
2013-06-12 12:50:00,79.2,71.0,29.69,East,88,0.0,3.0,75,0.00,,,0.46,weatherlink.com 1.10,2013-06-12 17:50:00,
2013-06-12 13:05:00,81.3,71.0,29.68,East,87,1.0,7.0,70,0.00,,,0.46,weatherlink.com 1.10,2013-06-12 18:05:00,
2013-06-12 13:20:00,80.2,70.0,29.69,East,86,0.0,6.0,72,0.00,,,0.46,weatherlink.com 1.10,2013-06-12 18:20:00,
2013-06-12 13:35:00,80.8,71.0,29.69,NNE,17,0.0,5.0,71,0.00,,,0.46,weatherlink.com 1.10,2013-06-12 18:35:00,
2013-06-12 13:50:00,80.9,71.0,29.69,East,80,1.0,6.0,72,0.00,,,0.46,weatherlink.com 1.10,2013-06-12 18:50:00,
2013-06-12 14:05:00,81.0,70.0,29.68,East,80,0.0,4.0,70,0.00,,,0.46,weatherlink.com 1.10,2013-06-12 19:05:00,
2013-06-12 14:20:00,80.1,71.0,29.68,East,80,0.0,4.0,73,0.00,,,0.46,weatherlink.com 1.10,2013-06-12 19:20:00,
2013-06-12 14:35:00,78.2,70.0,29.69,ENE,78,1.0,8.0,76,0.00,,,0.46,weatherlink.com 1.10,2013-06-12 19:35:00,
2013-06-12 14:50:00,78.2,70.0,29.69,East,88,1.0,8.0,77,0.00,,,0.46,weatherlink.com 1.10,2013-06-12 19:50:00,
2013-06-12 15:05:00,78.3,70.0,29.69,ESE,121,1.0,6.0,76,0.00,,,0.46,weatherlink.com 1.10,2013-06-12 20:05:00,
2013-06-12 15:20:00,79.4,71.0,29.68,North,355,2.0,6.0,75,0.00,,,0.46,weatherlink.com 1.10,2013-06-12 20:20:00,
2013-06-12 15:35:00,79.1,70.0,29.68,ENE,61,1.0,3.0,74,0.00,,,0.46,weatherlink.com 1.10,2013-06-12 20:35:00,
2013-06-12 15:50:00,78.3,70.0,29.66,ENE,68,1.0,6.0,75,0.00,,,0.46,weatherlink.com 1.10,2013-06-12 20:50:00,
2013-06-12 16:05:00,77.8,70.0,29.66,East,88,2.0,4.0,76,0.00,,,0.46,weatherlink.com 1.10,2013-06-12 21:05:00,
2013-06-12 16:20:00,77.5,70.0,29.65,ENE,76,1.0,5.0,78,0.00,,,0.46,weatherlink.com 1.10,2013-06-12 21:20:00,
2013-06-12 16:35:00,77.2,70.0,29.66,ENE,73,1.0,6.0,78,0.00,,,0.46,weatherlink.com 1.10,2013-06-12 21:35:00,
2013-06-12 16:51:00,75.9,69.0,29.65,NE,42,4.0,5.0,80,0.00,,,0.46,weatherlink.com 1.10,2013-06-12 21:51:00,
2013-06-12 17:06:00,75.0,69.0,29.64,ENE,69,0.0,8.0,81,0.00,,,0.46,weatherlink.com 1.10,2013-06-12 22:06:00,
2013-06-12 17:21:00,74.5,69.0,29.64,East,101,0.0,8.0,82,0.00,,,0.46,weatherlink.com 1.10,2013-06-12 22:21:00,
2013-06-12 17:36:00,73.8,69.0,29.64,East,83,0.0,4.0,84,0.01,,,0.47,weatherlink.com 1.10,2013-06-12 22:36:00,
2013-06-12 17:51:00,72.4,68.0,29.63,ENE,76,1.0,10.0,85,0.36,,,0.82,weatherlink.com 1.10,2013-06-12 22:51:00,
2013-06-12 18:06:00,70.7,67.0,29.66,West,265,7.0,11.0,88,0.43,,,0.89,weatherlink.com 1.10,2013-06-12 23:06:00,
2013-06-12 18:21:00,69.3,66.0,29.68,NW,322,3.0,12.0,88,0.44,,,0.90,weatherlink.com 1.10,2013-06-12 23:21:00,
2013-06-12 18:36:00,68.4,65.0,29.69,NNW,327,6.0,13.0,89,0.43,,,0.90,weatherlink.com 1.10,2013-06-12 23:36:00,
2013-06-12 18:51:00,68.1,65.0,29.69,NW,315,0.0,6.0,89,0.07,,,0.90,weatherlink.com 1.10,2013-06-12 23:51:00,
2013-06-12 19:06:00,68.0,65.0,29.71,NNW,338,0.0,10.0,89,0.01,,,0.90,weatherlink.com 1.10,2013-06-13 00:06:00,
2013-06-12 19:21:00,67.9,64.0,29.71,NNW,337,2.0,10.0,87,0.00,,,0.90,weatherlink.com 1.10,2013-06-13 00:21:00,
2013-06-12 19:36:00,67.5,64.0,29.72,NW,317,9.0,12.0,87,0.00,,,0.90,weatherlink.com 1.10,2013-06-13 00:36:00,
2013-06-12 19:51:00,66.2,62.0,29.72,NNE,17,9.0,21.0,87,0.00,,,0.90,weatherlink.com 1.10,2013-06-13 00:51:00,
2013-06-12 20:06:00,65.4,62.0,29.72,NNW,342,6.0,19.0,88,0.00,,,0.90,weatherlink.com 1.10,2013-06-13 01:06:00,
2013-06-12 20:22:00,65.3,62.0,29.74,NW,308,9.0,18.0,89,0.00,,,0.90,weatherlink.com 1.10,2013-06-13 01:22:00,
2013-06-12 20:36:00,65.5,62.0,29.74,NNW,331,10.0,16.0,89,0.01,,,0.91,weatherlink.com 1.10,2013-06-13 01:36:00,
2013-06-12 20:51:00,65.4,62.0,29.75,West,271,4.0,16.0,89,0.01,,,0.91,weatherlink.com 1.10,2013-06-13 01:51:00,
2013-06-12 21:07:00,65.2,62.0,29.76,North,349,9.0,16.0,89,0.02,,,0.92,weatherlink.com 1.10,2013-06-13 02:07:00,
2013-06-12 21:21:00,64.9,62.0,29.77,NNW,334,3.0,14.0,89,0.02,,,0.92,weatherlink.com 1.10,2013-06-13 02:21:00,
2013-06-12 21:36:00,64.7,62.0,29.78,NNW,344,2.0,14.0,89,0.01,,,0.92,weatherlink.com 1.10,2013-06-13 02:36:00,
2013-06-12 21:51:00,64.6,61.0,29.80,NW,310,1.0,13.0,88,0.01,,,0.92,weatherlink.com 1.10,2013-06-13 02:51:00,
2013-06-12 22:06:00,64.7,61.0,29.81,NNW,335,5.0,11.0,87,0.00,,,0.92,weatherlink.com 1.10,2013-06-13 03:06:00,
2013-06-12 22:21:00,64.5,60.0,29.83,NW,307,2.0,13.0,86,0.00,,,0.92,weatherlink.com 1.10,2013-06-13 03:21:00,
2013-06-12 22:36:00,64.3,60.0,29.84,NNW,335,6.0,12.0,86,0.00,,,0.92,weatherlink.com 1.10,2013-06-13 03:36:00,
2013-06-12 22:51:00,63.6,59.0,29.84,NNW,344,5.0,13.0,84,0.00,,,0.92,weatherlink.com 1.10,2013-06-13 03:51:00,
2013-06-12 23:06:00,63.0,58.0,29.85,North,349,10.0,16.0,83,0.00,,,0.92,weatherlink.com 1.10,2013-06-13 04:06:00,
2013-06-12 23:21:00,62.8,58.0,29.87,NNW,331,6.0,12.0,83,0.00,,,0.92,weatherlink.com 1.10,2013-06-13 04:21:00,
2013-06-12 23:36:00,62.9,57.0,29.87,NNW,348,6.0,13.0,82,0.00,,,0.92,weatherlink.com 1.10,2013-06-13 04:36:00,
2013-06-12 23:51:00,62.8,57.0,29.87,North,351,2.0,16.0,82,0.00,,,0.92,weatherlink.com 1.10,2013-06-13 04:51:00,